sensor_id;sensor_type;location;lat;lon;timestamp;pressure;altitude;pressure_sealevel;temperature;humidity
54666;BME280;40566;50.006;36.180;2022-12-24T00:04:10;99555.56;;;5.33;78.06
54666;BME280;40566;50.006;36.180;2022-12-24T00:09:11;99558.91;;;5.39;77.93
54666;BME280;40566;50.006;36.180;2022-12-24T00:14:11;99552.19;;;5.27;78.18
54666;BME280;40566;50.006;36.180;2022-12-24T00:19:12;99542.81;;;5.21;78.32
54666;BME280;40566;50.006;36.180;2022-12-24T00:24:12;99538.56;;;5.22;78.37
54666;BME280;40566;50.006;36.180;2022-12-24T00:29:13;99544.53;;;5.22;78.47
54666;BME280;40566;50.006;36.180;2022-12-24T00:34:13;99535.16;;;5.20;78.50
54666;BME280;40566;50.006;36.180;2022-12-24T00:39:14;99542.03;;;5.18;78.76
54666;BME280;40566;50.006;36.180;2022-12-24T00:44:14;99536.84;;;5.22;78.61
54666;BME280;40566;50.006;36.180;2022-12-24T00:49:15;99527.41;;;5.27;78.79
54666;BME280;40566;50.006;36.180;2022-12-24T00:54:16;99520.47;;;5.35;78.30
54666;BME280;40566;50.006;36.180;2022-12-24T00:59:17;99517.09;;;5.32;78.44
54666;BME280;40566;50.006;36.180;2022-12-24T01:04:17;99518.00;;;5.26;78.65
54666;BME280;40566;50.006;36.180;2022-12-24T01:09:36;99522.31;;;5.24;78.84
54666;BME280;40566;50.006;36.180;2022-12-24T01:14:37;99522.31;;;5.24;78.83
54666;BME280;40566;50.006;36.180;2022-12-24T01:19:37;99524.91;;;5.20;79.13
54666;BME280;40566;50.006;36.180;2022-12-24T01:24:42;99516.38;;;5.18;79.38
54666;BME280;40566;50.006;36.180;2022-12-24T01:29:42;99513.00;;;5.15;79.24
54666;BME280;40566;50.006;36.180;2022-12-24T01:34:43;99512.19;;;5.09;79.48
54666;BME280;40566;50.006;36.180;2022-12-24T01:39:43;99507.09;;;5.04;79.77
54666;BME280;40566;50.006;36.180;2022-12-24T01:44:47;99501.91;;;5.10;79.65
54666;BME280;40566;50.006;36.180;2022-12-24T01:49:58;99506.09;;;5.21;79.38
54666;BME280;40566;50.006;36.180;2022-12-24T01:55:04;99509.59;;;5.13;79.47
54666;BME280;40566;50.006;36.180;2022-12-24T02:00:11;99509.59;;;5.13;79.58
54666;BME280;40566;50.006;36.180;2022-12-24T02:10:45;99511.25;;;5.18;79.53
54666;BME280;40566;50.006;36.180;2022-12-24T02:27:03;99513.91;;;5.05;79.82
54666;BME280;40566;50.006;36.180;2022-12-24T02:37:22;99523.50;;;4.85;80.25
54666;BME280;40566;50.006;36.180;2022-12-24T02:42:38;99525.28;;;4.76;80.63
54666;BME280;40566;50.006;36.180;2022-12-24T02:47:41;99514.16;;;4.79;80.82
54666;BME280;40566;50.006;36.180;2022-12-24T02:52:45;99519.22;;;4.85;80.47
54666;BME280;40566;50.006;36.180;2022-12-24T02:58:18;99519.16;;;4.91;80.50
54666;BME280;40566;50.006;36.180;2022-12-24T03:03:35;99527.75;;;4.87;80.46
54666;BME280;40566;50.006;36.180;2022-12-24T03:09:05;99521.00;;;4.79;80.77
54666;BME280;40566;50.006;36.180;2022-12-24T03:14:13;99515.88;;;4.80;80.64
54666;BME280;40566;50.006;36.180;2022-12-24T03:19:15;99511.66;;;4.71;80.93
54666;BME280;40566;50.006;36.180;2022-12-24T03:24:16;99521.94;;;4.68;81.04
54666;BME280;40566;50.006;36.180;2022-12-24T03:29:18;99528.75;;;4.69;81.12
54666;BME280;40566;50.006;36.180;2022-12-24T03:34:18;99528.72;;;4.72;81.14
54666;BME280;40566;50.006;36.180;2022-12-24T03:39:19;99538.94;;;4.75;81.09
54666;BME280;40566;50.006;36.180;2022-12-24T03:44:20;99533.03;;;4.69;81.17
54666;BME280;40566;50.006;36.180;2022-12-24T03:49:20;99526.16;;;4.74;81.23
54666;BME280;40566;50.006;36.180;2022-12-24T03:54:21;99536.31;;;4.82;81.03
54666;BME280;40566;50.006;36.180;2022-12-24T03:59:21;99529.59;;;4.70;81.21
54666;BME280;40566;50.006;36.180;2022-12-24T04:04:22;99528.69;;;4.79;81.03
54666;BME280;40566;50.006;36.180;2022-12-24T04:09:23;99523.59;;;4.74;81.07
54666;BME280;40566;50.006;36.180;2022-12-24T04:14:23;99525.34;;;4.69;81.21
54666;BME280;40566;50.006;36.180;2022-12-24T04:19:24;99527.06;;;4.65;81.35
54666;BME280;40566;50.006;36.180;2022-12-24T04:24:24;99521.16;;;4.59;81.56
54666;BME280;40566;50.006;36.180;2022-12-24T04:29:25;99528.00;;;4.53;81.59
54666;BME280;40566;50.006;36.180;2022-12-24T04:34:26;99517.72;;;4.60;81.62
54666;BME280;40566;50.006;36.180;2022-12-24T04:39:26;99511.69;;;4.68;81.18
54666;BME280;40566;50.006;36.180;2022-12-24T04:44:27;99516.78;;;4.71;81.12
54666;BME280;40566;50.006;36.180;2022-12-24T04:49:28;99510.00;;;4.64;81.19
54666;BME280;40566;50.006;36.180;2022-12-24T04:54:28;99509.13;;;4.67;81.32
54666;BME280;40566;50.006;36.180;2022-12-24T04:59:29;99506.56;;;4.67;81.45
54666;BME280;40566;50.006;36.180;2022-12-24T05:04:29;99500.66;;;4.60;81.54
54666;BME280;40566;50.006;36.180;2022-12-24T05:09:31;99501.50;;;4.62;81.57
54666;BME280;40566;50.006;36.180;2022-12-24T05:14:31;99510.81;;;4.71;81.18
54666;BME280;40566;50.006;36.180;2022-12-24T05:19:32;99509.06;;;4.74;81.11
54666;BME280;40566;50.006;36.180;2022-12-24T05:24:33;99515.03;;;4.78;80.94
54666;BME280;40566;50.006;36.180;2022-12-24T05:29:52;99521.03;;;4.74;81.13
54666;BME280;40566;50.006;36.180;2022-12-24T05:34:52;99523.59;;;4.72;81.25
54666;BME280;40566;50.006;36.180;2022-12-24T05:39:53;99519.22;;;4.85;81.07
54666;BME280;40566;50.006;36.180;2022-12-24T05:44:54;99521.72;;;4.94;80.64
54666;BME280;40566;50.006;36.180;2022-12-24T05:49:54;99526.84;;;4.93;80.77
54666;BME280;40566;50.006;36.180;2022-12-24T05:54:55;99531.13;;;4.91;80.95
54666;BME280;40566;50.006;36.180;2022-12-24T05:59:55;99527.63;;;5.03;80.57
54666;BME280;40566;50.006;36.180;2022-12-24T06:04:56;99523.31;;;5.06;80.36
54666;BME280;40566;50.006;36.180;2022-12-24T06:09:56;99522.44;;;5.07;80.27
54666;BME280;40566;50.006;36.180;2022-12-24T06:14:57;99525.06;;;5.04;80.50
54666;BME280;40566;50.006;36.180;2022-12-24T06:19:58;99525.88;;;5.05;80.46
54666;BME280;40566;50.006;36.180;2022-12-24T06:24:58;99533.59;;;5.03;80.39
54666;BME280;40566;50.006;36.180;2022-12-24T06:29:59;99531.84;;;5.07;80.42
54666;BME280;40566;50.006;36.180;2022-12-24T06:34:59;99541.25;;;5.08;80.48
54666;BME280;40566;50.006;36.180;2022-12-24T06:40:00;99542.94;;;5.12;80.34
54666;BME280;40566;50.006;36.180;2022-12-24T06:45:01;99549.03;;;4.97;80.79
54666;BME280;40566;50.006;36.180;2022-12-24T06:50:02;99555.03;;;4.91;80.96
54666;BME280;40566;50.006;36.180;2022-12-24T06:55:03;99549.03;;;4.99;80.76
54666;BME280;40566;50.006;36.180;2022-12-24T07:00:06;99541.38;;;4.91;81.05
54666;BME280;40566;50.006;36.180;2022-12-24T07:05:08;99549.03;;;4.97;80.72
54666;BME280;40566;50.006;36.180;2022-12-24T07:10:12;99546.44;;;5.00;80.80
54666;BME280;40566;50.006;36.180;2022-12-24T07:15:14;99546.41;;;5.05;80.63
54666;BME280;40566;50.006;36.180;2022-12-24T07:20:15;99539.53;;;5.07;80.48
54666;BME280;40566;50.006;36.180;2022-12-24T07:25:16;99554.00;;;5.15;80.32
54666;BME280;40566;50.006;36.180;2022-12-24T07:30:17;99559.22;;;5.03;80.56
54666;BME280;40566;50.006;36.180;2022-12-24T07:35:36;99569.59;;;4.91;80.84
54666;BME280;40566;50.006;36.180;2022-12-24T07:40:36;99549.84;;;4.99;81.02
54666;BME280;40566;50.006;36.180;2022-12-24T07:45:38;99544.63;;;5.11;80.55
54666;BME280;40566;50.006;36.180;2022-12-24T07:50:38;99547.19;;;5.11;80.41
54666;BME280;40566;50.006;36.180;2022-12-24T07:55:39;99557.56;;;4.99;80.59
54666;BME280;40566;50.006;36.180;2022-12-24T08:00:40;99561.06;;;4.89;81.07
54666;BME280;40566;50.006;36.180;2022-12-24T08:05:40;99555.03;;;4.93;81.00
54666;BME280;40566;50.006;36.180;2022-12-24T08:10:41;99549.84;;;5.02;80.74
54666;BME280;40566;50.006;36.180;2022-12-24T08:15:43;99552.41;;;4.99;80.78
54666;BME280;40566;50.006;36.180;2022-12-24T08:20:44;99552.47;;;4.96;80.97
54666;BME280;40566;50.006;36.180;2022-12-24T08:25:46;99549.13;;;4.88;81.14
54666;BME280;40566;50.006;36.180;2022-12-24T08:30:48;99542.28;;;4.90;81.07
54666;BME280;40566;50.006;36.180;2022-12-24T08:35:50;99548.19;;;4.93;80.94
54666;BME280;40566;50.006;36.180;2022-12-24T08:40:53;99541.38;;;4.91;81.23
54666;BME280;40566;50.006;36.180;2022-12-24T08:45:54;99537.06;;;4.97;81.08
54666;BME280;40566;50.006;36.180;2022-12-24T08:50:54;99533.53;;;5.09;80.64
54666;BME280;40566;50.006;36.180;2022-12-24T08:56:01;99530.97;;;5.09;80.67
54666;BME280;40566;50.006;36.180;2022-12-24T09:01:13;99528.47;;;5.03;80.67
54666;BME280;40566;50.006;36.180;2022-12-24T09:06:14;99515.72;;;4.95;80.97
54666;BME280;40566;50.006;36.180;2022-12-24T09:11:17;99518.25;;;4.99;80.95
54666;BME280;40566;50.006;36.180;2022-12-24T09:16:18;99518.19;;;5.06;80.87
54666;BME280;40566;50.006;36.180;2022-12-24T09:21:18;99506.22;;;5.08;80.93
54666;BME280;40566;50.006;36.180;2022-12-24T09:26:24;99513.00;;;5.11;81.04
54666;BME280;40566;50.006;36.180;2022-12-24T09:31:25;99507.88;;;5.15;80.78
54666;BME280;40566;50.006;36.180;2022-12-24T09:36:26;99513.91;;;5.07;81.07
54666;BME280;40566;50.006;36.180;2022-12-24T09:41:57;99501.03;;;5.11;80.92
54666;BME280;40566;50.006;36.180;2022-12-24T09:47:09;99501.91;;;5.10;81.16
54666;BME280;40566;50.006;36.180;2022-12-24T09:52:14;99505.31;;;5.14;81.06
54666;BME280;40566;50.006;36.180;2022-12-24T09:57:32;99499.41;;;5.04;81.23
54666;BME280;40566;50.006;36.180;2022-12-24T10:02:34;99498.53;;;5.08;81.28
54666;BME280;40566;50.006;36.180;2022-12-24T10:13:12;99496.66;;;5.24;81.17
54666;BME280;40566;50.006;36.180;2022-12-24T10:23:45;99488.00;;;5.34;80.66
54666;BME280;40566;50.006;36.180;2022-12-24T10:28:52;99481.19;;;5.33;81.06
54666;BME280;40566;50.006;36.180;2022-12-24T10:33:58;99481.00;;;5.49;80.79
54666;BME280;40566;50.006;36.180;2022-12-24T10:39:00;99474.19;;;5.46;80.81
54666;BME280;40566;50.006;36.180;2022-12-24T10:44:01;99487.00;;;5.49;80.90
54666;BME280;40566;50.006;36.180;2022-12-24T10:49:05;99482.84;;;5.36;81.20
54666;BME280;40566;50.006;36.180;2022-12-24T10:54:12;99478.56;;;5.40;81.18
54666;BME280;40566;50.006;36.180;2022-12-24T11:04:45;99478.47;;;5.47;80.93
54666;BME280;40566;50.006;36.180;2022-12-24T11:10:02;99478.50;;;5.43;81.16
54666;BME280;40566;50.006;36.180;2022-12-24T11:20:17;99480.97;;;5.52;81.10
54666;BME280;40566;50.006;36.180;2022-12-24T11:30:36;99485.28;;;5.48;81.37
54666;BME280;40566;50.006;36.180;2022-12-24T11:35:45;99492.88;;;5.57;80.97
54666;BME280;40566;50.006;36.180;2022-12-24T11:40:56;99491.97;;;5.60;80.85
54666;BME280;40566;50.006;36.180;2022-12-24T11:46:11;99495.59;;;5.42;81.21
54666;BME280;40566;50.006;36.180;2022-12-24T11:51:39;99497.34;;;5.40;81.46
54666;BME280;40566;50.006;36.180;2022-12-24T11:56:43;99498.19;;;5.42;81.48
54666;BME280;40566;50.006;36.180;2022-12-24T12:07:06;99491.97;;;5.60;80.96
54666;BME280;40566;50.006;36.180;2022-12-24T12:12:17;99486.88;;;5.59;80.83
54666;BME280;40566;50.006;36.180;2022-12-24T12:17:36;99479.22;;;5.55;80.86
54666;BME280;40566;50.006;36.180;2022-12-24T12:22:59;99489.47;;;5.55;81.02
54666;BME280;40566;50.006;36.180;2022-12-24T12:28:07;99493.81;;;5.50;81.35
54666;BME280;40566;50.006;36.180;2022-12-24T12:33:38;99484.38;;;5.52;81.32
54666;BME280;40566;50.006;36.180;2022-12-24T12:38:39;99485.16;;;5.59;81.05
54666;BME280;40566;50.006;36.180;2022-12-24T12:54:53;99500.66;;;5.51;81.13
54666;BME280;40566;50.006;36.180;2022-12-24T13:00:10;99494.69;;;5.48;81.03
54666;BME280;40566;50.006;36.180;2022-12-24T13:21:41;99521.19;;;5.48;81.28
54666;BME280;40566;50.006;36.180;2022-12-24T13:27:03;99529.06;;;5.31;81.71
54666;BME280;40566;50.006;36.180;2022-12-24T13:32:38;99527.47;;;5.20;81.95
54666;BME280;40566;50.006;36.180;2022-12-24T13:37:39;99537.69;;;5.26;82.06
54666;BME280;40566;50.006;36.180;2022-12-24T13:47:49;99557.34;;;5.24;82.22
54666;BME280;40566;50.006;36.180;2022-12-24T13:52:52;99553.06;;;5.26;82.13
54666;BME280;40566;50.006;36.180;2022-12-24T14:18:40;99578.00;;;5.05;82.57
54666;BME280;40566;50.006;36.180;2022-12-24T14:23:54;99584.84;;;5.06;82.37
54666;BME280;40566;50.006;36.180;2022-12-24T14:34:21;99596.66;;;5.23;82.07
54666;BME280;40566;50.006;36.180;2022-12-24T14:39:31;99605.19;;;5.25;82.01
54666;BME280;40566;50.006;36.180;2022-12-24T14:55:29;99603.34;;;5.41;81.77
54666;BME280;40566;50.006;36.180;2022-12-24T15:00:30;99605.91;;;5.41;81.82
54666;BME280;40566;50.006;36.180;2022-12-24T15:05:31;99609.38;;;5.35;81.82
54666;BME280;40566;50.006;36.180;2022-12-24T15:10:38;99600.00;;;5.32;81.87
54666;BME280;40566;50.006;36.180;2022-12-24T15:15:41;99599.09;;;5.36;82.02
54666;BME280;40566;50.006;36.180;2022-12-24T15:20:46;99596.47;;;5.43;81.77
54666;BME280;40566;50.006;36.180;2022-12-24T15:25:47;99609.28;;;5.46;81.63
54666;BME280;40566;50.006;36.180;2022-12-24T15:31:04;99603.47;;;5.30;81.90
54666;BME280;40566;50.006;36.180;2022-12-24T15:36:07;99594.88;;;5.34;82.05
54666;BME280;40566;50.006;36.180;2022-12-24T15:41:20;99600.72;;;5.48;81.60
54666;BME280;40566;50.006;36.180;2022-12-24T15:46:27;99603.25;;;5.51;81.34
54666;BME280;40566;50.006;36.180;2022-12-24T15:51:34;99609.22;;;5.55;81.50
54666;BME280;40566;50.006;36.180;2022-12-24T15:56:38;99604.88;;;5.62;81.28
54666;BME280;40566;50.006;36.180;2022-12-24T16:01:44;99608.28;;;5.62;81.38
54666;BME280;40566;50.006;36.180;2022-12-24T16:06:57;99607.44;;;5.63;81.14
54666;BME280;40566;50.006;36.180;2022-12-24T16:11:58;99617.69;;;5.60;81.38
54666;BME280;40566;50.006;36.180;2022-12-24T16:16:59;99621.16;;;5.59;81.51
54666;BME280;40566;50.006;36.180;2022-12-24T16:22:01;99597.25;;;5.54;81.67
54666;BME280;40566;50.006;36.180;2022-12-24T16:27:22;99597.25;;;5.54;81.62
54666;BME280;40566;50.006;36.180;2022-12-24T16:37:29;99598.31;;;5.31;82.23
54666;BME280;40566;50.006;36.180;2022-12-24T16:42:30;99611.16;;;5.30;82.38
54666;BME280;40566;50.006;36.180;2022-12-24T16:47:49;99607.81;;;5.22;82.46
54666;BME280;40566;50.006;36.180;2022-12-24T16:52:50;99610.31;;;5.25;82.63
54666;BME280;40566;50.006;36.180;2022-12-24T16:57:52;99608.69;;;5.18;82.65
54666;BME280;40566;50.006;36.180;2022-12-24T17:02:53;99599.28;;;5.15;82.84
54666;BME280;40566;50.006;36.180;2022-12-24T17:07:53;99601.00;;;5.13;82.96
54666;BME280;40566;50.006;36.180;2022-12-24T17:12:54;99604.41;;;5.20;82.84
54666;BME280;40566;50.006;36.180;2022-12-24T17:17:55;99595.84;;;5.21;82.72
54666;BME280;40566;50.006;36.180;2022-12-24T17:22:56;99596.75;;;5.13;83.06
54666;BME280;40566;50.006;36.180;2022-12-24T17:27:56;99596.78;;;5.12;83.18
54666;BME280;40566;50.006;36.180;2022-12-24T17:32:57;99601.78;;;5.24;82.87
54666;BME280;40566;50.006;36.180;2022-12-24T17:37:58;99601.78;;;5.24;82.88
54666;BME280;40566;50.006;36.180;2022-12-24T17:42:58;99603.53;;;5.21;82.84
54666;BME280;40566;50.006;36.180;2022-12-24T17:47:59;99607.69;;;5.31;82.86
54666;BME280;40566;50.006;36.180;2022-12-24T17:53:00;99616.16;;;5.45;82.38
54666;BME280;40566;50.006;36.180;2022-12-24T17:58:01;99616.94;;;5.50;82.28
54666;BME280;40566;50.006;36.180;2022-12-24T18:03:01;99620.41;;;5.45;82.51
54666;BME280;40566;50.006;36.180;2022-12-24T18:08:02;99626.47;;;5.38;82.60
54666;BME280;40566;50.006;36.180;2022-12-24T18:13:03;99631.72;;;5.25;83.00
54666;BME280;40566;50.006;36.180;2022-12-24T18:18:04;99633.34;;;5.34;82.98
54666;BME280;40566;50.006;36.180;2022-12-24T18:23:05;99641.03;;;5.35;82.95
54666;BME280;40566;50.006;36.180;2022-12-24T18:28:06;99634.19;;;5.36;82.87
54666;BME280;40566;50.006;36.180;2022-12-24T18:33:06;99638.47;;;5.32;83.10
54666;BME280;40566;50.006;36.180;2022-12-24T18:38:07;99645.31;;;5.32;83.04
54666;BME280;40566;50.006;36.180;2022-12-24T18:43:08;99642.75;;;5.30;83.10
54666;BME280;40566;50.006;36.180;2022-12-24T18:48:09;99640.16;;;5.35;83.09
54666;BME280;40566;50.006;36.180;2022-12-24T18:53:09;99640.91;;;5.46;82.77
54666;BME280;40566;50.006;36.180;2022-12-24T18:58:10;99647.75;;;5.47;82.81
54666;BME280;40566;50.006;36.180;2022-12-24T19:03:11;99641.81;;;5.42;83.00
54666;BME280;40566;50.006;36.180;2022-12-24T19:08:11;99648.59;;;5.48;82.93
54666;BME280;40566;50.006;36.180;2022-12-24T19:13:12;99652.91;;;5.44;82.73
54666;BME280;40566;50.006;36.180;2022-12-24T19:18:13;99658.94;;;5.39;83.11
54666;BME280;40566;50.006;36.180;2022-12-24T19:23:13;99658.88;;;5.49;82.83
54666;BME280;40566;50.006;36.180;2022-12-24T19:28:15;99664.81;;;5.53;82.75
54666;BME280;40566;50.006;36.180;2022-12-24T19:33:16;99664.84;;;5.51;82.73
54666;BME280;40566;50.006;36.180;2022-12-24T19:38:16;99668.25;;;5.50;82.83
54666;BME280;40566;50.006;36.180;2022-12-24T19:43:17;99669.06;;;5.55;82.81
54666;BME280;40566;50.006;36.180;2022-12-24T19:48:17;99677.66;;;5.53;82.86
54666;BME280;40566;50.006;36.180;2022-12-24T19:53:18;99683.63;;;5.50;82.94
54666;BME280;40566;50.006;36.180;2022-12-24T19:58:18;99679.38;;;5.49;82.99
54666;BME280;40566;50.006;36.180;2022-12-24T20:03:20;99672.59;;;5.45;83.01
54666;BME280;40566;50.006;36.180;2022-12-24T20:08:20;99682.81;;;5.48;83.04
54666;BME280;40566;50.006;36.180;2022-12-24T20:13:22;99681.03;;;5.56;83.10
54666;BME280;40566;50.006;36.180;2022-12-24T20:18:23;99693.91;;;5.50;82.97
54666;BME280;40566;50.006;36.180;2022-12-24T20:23:24;99695.69;;;5.42;83.25
54666;BME280;40566;50.006;36.180;2022-12-24T20:28:26;99698.28;;;5.39;83.39
54666;BME280;40566;50.006;36.180;2022-12-24T20:33:28;99697.41;;;5.39;83.50
54666;BME280;40566;50.006;36.180;2022-12-24T20:38:28;99703.38;;;5.41;83.41
54666;BME280;40566;50.006;36.180;2022-12-24T20:43:29;99699.06;;;5.47;83.28
54666;BME280;40566;50.006;36.180;2022-12-24T20:48:30;99697.28;;;5.55;83.02
54666;BME280;40566;50.006;36.180;2022-12-24T20:53:31;99704.16;;;5.53;82.82
54666;BME280;40566;50.006;36.180;2022-12-24T20:58:31;99707.56;;;5.52;83.05
54666;BME280;40566;50.006;36.180;2022-12-24T21:03:33;99713.59;;;5.48;83.14
54666;BME280;40566;50.006;36.180;2022-12-24T21:08:34;99705.81;;;5.57;82.83
54666;BME280;40566;50.006;36.180;2022-12-24T21:13:35;99704.09;;;5.56;82.87
54666;BME280;40566;50.006;36.180;2022-12-24T21:18:35;99704.09;;;5.60;82.77
54666;BME280;40566;50.006;36.180;2022-12-24T21:23:36;99699.88;;;5.52;82.94
54666;BME280;40566;50.006;36.180;2022-12-24T21:28:36;99708.47;;;5.47;82.92
54666;BME280;40566;50.006;36.180;2022-12-24T21:33:37;99705.09;;;5.40;83.12
54666;BME280;40566;50.006;36.180;2022-12-24T21:38:38;99717.88;;;5.48;82.93
54666;BME280;40566;50.006;36.180;2022-12-24T21:43:39;99721.28;;;5.51;82.88
54666;BME280;40566;50.006;36.180;2022-12-24T21:48:40;99719.53;;;5.53;82.74
54666;BME280;40566;50.006;36.180;2022-12-24T21:54:00;99725.56;;;5.48;82.84
54666;BME280;40566;50.006;36.180;2022-12-24T21:59:19;99725.53;;;5.52;82.70
54666;BME280;40566;50.006;36.180;2022-12-24T22:04:20;99729.84;;;5.46;82.90
54666;BME280;40566;50.006;36.180;2022-12-24T22:09:20;99728.16;;;5.45;82.77
54666;BME280;40566;50.006;36.180;2022-12-24T22:14:40;99725.63;;;5.43;82.77
54666;BME280;40566;50.006;36.180;2022-12-24T22:19:40;99729.13;;;5.31;83.16
54666;BME280;40566;50.006;36.180;2022-12-24T22:24:41;99724.03;;;5.24;83.12
54666;BME280;40566;50.006;36.180;2022-12-24T22:29:41;99725.75;;;5.20;83.34
54666;BME280;40566;50.006;36.180;2022-12-24T22:34:42;99729.13;;;5.28;82.96
54666;BME280;40566;50.006;36.180;2022-12-24T22:39:42;99739.34;;;5.36;82.80
54666;BME280;40566;50.006;36.180;2022-12-24T22:44:43;99746.13;;;5.43;82.46
54666;BME280;40566;50.006;36.180;2022-12-24T22:49:46;99746.09;;;5.48;82.26
54666;BME280;40566;50.006;36.180;2022-12-24T22:54:47;99747.78;;;5.52;82.32
54666;BME280;40566;50.006;36.180;2022-12-24T22:59:47;99765.66;;;5.61;82.15
54666;BME280;40566;50.006;36.180;2022-12-24T23:04:48;99765.66;;;5.61;82.04
54666;BME280;40566;50.006;36.180;2022-12-24T23:09:49;99752.00;;;5.57;82.01
54666;BME280;40566;50.006;36.180;2022-12-24T23:14:49;99757.94;;;5.63;82.14
54666;BME280;40566;50.006;36.180;2022-12-24T23:19:56;99772.44;;;5.68;81.82
54666;BME280;40566;50.006;36.180;2022-12-24T23:24:56;99764.84;;;5.57;82.02
54666;BME280;40566;50.006;36.180;2022-12-24T23:29:57;99778.50;;;5.56;82.29
54666;BME280;40566;50.006;36.180;2022-12-24T23:34:57;99787.88;;;5.67;81.76
54666;BME280;40566;50.006;36.180;2022-12-24T23:39:58;99779.34;;;5.62;81.92
54666;BME280;40566;50.006;36.180;2022-12-24T23:44:59;99781.03;;;5.63;81.94
54666;BME280;40566;50.006;36.180;2022-12-24T23:49:59;99773.31;;;5.67;81.62
54666;BME280;40566;50.006;36.180;2022-12-24T23:55:00;99775.91;;;5.66;81.51
